sensor_id;sensor_type;location;lat;lon;timestamp;P1;durP1;ratioP1;P2;durP2;ratioP2
22622;SDS011;11478;51.094;7.030;2023-07-20T00:00:08;5.80;;;3.47;;
22622;SDS011;11478;51.094;7.030;2023-07-20T00:02:35;5.90;;;3.05;;
22622;SDS011;11478;51.094;7.030;2023-07-20T00:05:01;7.68;;;3.33;;
22622;SDS011;11478;51.094;7.030;2023-07-20T00:07:29;7.25;;;3.30;;
22622;SDS011;11478;51.094;7.030;2023-07-20T00:09:55;5.78;;;3.10;;
22622;SDS011;11478;51.094;7.030;2023-07-20T00:12:22;5.35;;;3.40;;
22622;SDS011;11478;51.094;7.030;2023-07-20T00:14:48;7.50;;;3.30;;
22622;SDS011;11478;51.094;7.030;2023-07-20T00:17:15;4.43;;;2.80;;
22622;SDS011;11478;51.094;7.030;2023-07-20T00:19:40;4.97;;;3.10;;
22622;SDS011;11478;51.094;7.030;2023-07-20T00:22:06;6.75;;;3.40;;
22622;SDS011;11478;51.094;7.030;2023-07-20T00:24:32;6.95;;;3.35;;
22622;SDS011;11478;51.094;7.030;2023-07-20T00:27:00;5.55;;;3.40;;
22622;SDS011;11478;51.094;7.030;2023-07-20T00:29:27;5.22;;;3.10;;
22622;SDS011;11478;51.094;7.030;2023-07-20T00:31:53;4.45;;;3.30;;
22622;SDS011;11478;51.094;7.030;2023-07-20T00:34:26;6.18;;;3.10;;
22622;SDS011;11478;51.094;7.030;2023-07-20T00:36:52;4.22;;;3.20;;
22622;SDS011;11478;51.094;7.030;2023-07-20T00:39:23;8.65;;;3.63;;
22622;SDS011;11478;51.094;7.030;2023-07-20T00:41:49;8.13;;;3.70;;
22622;SDS011;11478;51.094;7.030;2023-07-20T00:44:19;5.13;;;3.20;;
22622;SDS011;11478;51.094;7.030;2023-07-20T00:46:45;5.03;;;3.10;;
22622;SDS011;11478;51.094;7.030;2023-07-20T00:49:11;5.03;;;3.25;;
22622;SDS011;11478;51.094;7.030;2023-07-20T00:51:37;4.47;;;3.00;;
22622;SDS011;11478;51.094;7.030;2023-07-20T00:54:05;6.75;;;3.53;;
22622;SDS011;11478;51.094;7.030;2023-07-20T00:56:32;7.03;;;3.80;;
22622;SDS011;11478;51.094;7.030;2023-07-20T00:59:00;6.43;;;3.40;;
22622;SDS011;11478;51.094;7.030;2023-07-20T01:01:26;7.15;;;3.78;;
22622;SDS011;11478;51.094;7.030;2023-07-20T01:03:52;5.70;;;3.72;;
22622;SDS011;11478;51.094;7.030;2023-07-20T01:06:24;5.30;;;3.17;;
22622;SDS011;11478;51.094;7.030;2023-07-20T01:09:09;4.18;;;3.22;;
22622;SDS011;11478;51.094;7.030;2023-07-20T01:14:19;4.95;;;3.25;;
22622;SDS011;11478;51.094;7.030;2023-07-20T01:16:47;6.13;;;3.30;;
22622;SDS011;11478;51.094;7.030;2023-07-20T01:19:14;7.68;;;3.28;;
22622;SDS011;11478;51.094;7.030;2023-07-20T01:21:46;4.53;;;3.33;;
22622;SDS011;11478;51.094;7.030;2023-07-20T01:29:42;4.82;;;3.15;;
22622;SDS011;11478;51.094;7.030;2023-07-20T01:32:36;5.97;;;3.30;;
22622;SDS011;11478;51.094;7.030;2023-07-20T01:35:15;5.80;;;3.40;;
22622;SDS011;11478;51.094;7.030;2023-07-20T01:37:43;6.35;;;3.50;;
22622;SDS011;11478;51.094;7.030;2023-07-20T01:40:22;7.80;;;3.33;;
22622;SDS011;11478;51.094;7.030;2023-07-20T01:42:50;5.47;;;3.40;;
22622;SDS011;11478;51.094;7.030;2023-07-20T01:45:20;5.88;;;3.17;;
22622;SDS011;11478;51.094;7.030;2023-07-20T01:47:46;5.20;;;2.97;;
22622;SDS011;11478;51.094;7.030;2023-07-20T01:50:12;5.72;;;3.35;;
22622;SDS011;11478;51.094;7.030;2023-07-20T01:52:38;5.00;;;3.20;;
22622;SDS011;11478;51.094;7.030;2023-07-20T01:55:10;4.88;;;3.13;;
22622;SDS011;11478;51.094;7.030;2023-07-20T01:57:37;4.25;;;3.00;;
22622;SDS011;11478;51.094;7.030;2023-07-20T02:02:34;6.90;;;3.35;;
22622;SDS011;11478;51.094;7.030;2023-07-20T02:05:00;5.95;;;3.35;;
22622;SDS011;11478;51.094;7.030;2023-07-20T02:07:26;5.93;;;3.63;;
22622;SDS011;11478;51.094;7.030;2023-07-20T02:09:53;4.18;;;3.33;;
22622;SDS011;11478;51.094;7.030;2023-07-20T02:12:19;6.95;;;3.55;;
22622;SDS011;11478;51.094;7.030;2023-07-20T02:14:46;6.57;;;3.42;;
22622;SDS011;11478;51.094;7.030;2023-07-20T02:17:12;6.40;;;3.30;;
22622;SDS011;11478;51.094;7.030;2023-07-20T02:19:40;4.80;;;3.28;;
22622;SDS011;11478;51.094;7.030;2023-07-20T02:22:06;5.43;;;3.42;;
22622;SDS011;11478;51.094;7.030;2023-07-20T02:24:33;5.65;;;3.40;;
22622;SDS011;11478;51.094;7.030;2023-07-20T02:26:59;5.25;;;3.60;;
22622;SDS011;11478;51.094;7.030;2023-07-20T02:29:24;5.18;;;3.38;;
22622;SDS011;11478;51.094;7.030;2023-07-20T02:31:50;4.45;;;3.33;;
22622;SDS011;11478;51.094;7.030;2023-07-20T02:34:24;6.32;;;3.72;;
22622;SDS011;11478;51.094;7.030;2023-07-20T02:36:50;5.43;;;3.70;;
22622;SDS011;11478;51.094;7.030;2023-07-20T02:39:16;5.18;;;3.60;;
22622;SDS011;11478;51.094;7.030;2023-07-20T02:41:42;6.72;;;3.42;;
22622;SDS011;11478;51.094;7.030;2023-07-20T02:44:17;8.00;;;3.92;;
22622;SDS011;11478;51.094;7.030;2023-07-20T02:46:43;7.93;;;4.25;;
22622;SDS011;11478;51.094;7.030;2023-07-20T02:49:12;7.00;;;4.40;;
22622;SDS011;11478;51.094;7.030;2023-07-20T02:51:38;6.90;;;4.40;;
22622;SDS011;11478;51.094;7.030;2023-07-20T02:54:06;7.47;;;3.95;;
22622;SDS011;11478;51.094;7.030;2023-07-20T02:56:39;6.20;;;4.05;;
22622;SDS011;11478;51.094;7.030;2023-07-20T02:59:07;6.95;;;4.75;;
22622;SDS011;11478;51.094;7.030;2023-07-20T03:01:33;8.32;;;4.40;;
22622;SDS011;11478;51.094;7.030;2023-07-20T03:04:03;6.03;;;4.15;;
22622;SDS011;11478;51.094;7.030;2023-07-20T03:06:29;8.32;;;4.57;;
22622;SDS011;11478;51.094;7.030;2023-07-20T03:08:57;9.60;;;4.68;;
22622;SDS011;11478;51.094;7.030;2023-07-20T03:11:23;6.85;;;4.75;;
22622;SDS011;11478;51.094;7.030;2023-07-20T03:13:49;6.85;;;4.78;;
22622;SDS011;11478;51.094;7.030;2023-07-20T03:16:17;9.45;;;4.93;;
22622;SDS011;11478;51.094;7.030;2023-07-20T03:18:45;9.48;;;5.07;;
22622;SDS011;11478;51.094;7.030;2023-07-20T03:21:11;9.73;;;4.90;;
22622;SDS011;11478;51.094;7.030;2023-07-20T03:23:56;9.30;;;4.32;;
22622;SDS011;11478;51.094;7.030;2023-07-20T03:26:23;7.88;;;4.90;;
22622;SDS011;11478;51.094;7.030;2023-07-20T03:28:51;8.38;;;4.55;;
22622;SDS011;11478;51.094;7.030;2023-07-20T03:31:25;7.93;;;4.72;;
22622;SDS011;11478;51.094;7.030;2023-07-20T03:33:51;7.13;;;4.38;;
22622;SDS011;11478;51.094;7.030;2023-07-20T03:36:17;8.15;;;4.85;;
22622;SDS011;11478;51.094;7.030;2023-07-20T03:38:48;7.13;;;4.63;;
22622;SDS011;11478;51.094;7.030;2023-07-20T03:41:19;9.48;;;4.45;;
22622;SDS011;11478;51.094;7.030;2023-07-20T03:44:00;8.45;;;4.85;;
22622;SDS011;11478;51.094;7.030;2023-07-20T03:46:37;9.35;;;4.57;;
22622;SDS011;11478;51.094;7.030;2023-07-20T03:49:03;7.55;;;4.72;;
22622;SDS011;11478;51.094;7.030;2023-07-20T03:51:31;11.75;;;4.85;;
22622;SDS011;11478;51.094;7.030;2023-07-20T03:53:58;6.15;;;4.13;;
22622;SDS011;11478;51.094;7.030;2023-07-20T03:56:25;4.97;;;4.00;;
22622;SDS011;11478;51.094;7.030;2023-07-20T03:58:51;6.63;;;4.20;;
22622;SDS011;11478;51.094;7.030;2023-07-20T04:01:18;5.35;;;4.10;;
22622;SDS011;11478;51.094;7.030;2023-07-20T04:03:45;8.43;;;3.83;;
22622;SDS011;11478;51.094;7.030;2023-07-20T04:06:17;5.25;;;3.42;;
22622;SDS011;11478;51.094;7.030;2023-07-20T04:08:47;6.95;;;3.92;;
22622;SDS011;11478;51.094;7.030;2023-07-20T04:11:20;6.18;;;4.18;;
22622;SDS011;11478;51.094;7.030;2023-07-20T04:13:50;8.48;;;3.85;;
22622;SDS011;11478;51.094;7.030;2023-07-20T04:16:22;8.57;;;4.00;;
22622;SDS011;11478;51.094;7.030;2023-07-20T04:18:59;6.57;;;3.88;;
22622;SDS011;11478;51.094;7.030;2023-07-20T04:21:26;6.03;;;3.65;;
22622;SDS011;11478;51.094;7.030;2023-07-20T04:23:52;6.00;;;3.97;;
22622;SDS011;11478;51.094;7.030;2023-07-20T04:26:18;7.40;;;3.95;;
22622;SDS011;11478;51.094;7.030;2023-07-20T04:28:44;7.47;;;4.00;;
22622;SDS011;11478;51.094;7.030;2023-07-20T04:31:13;9.82;;;4.50;;
22622;SDS011;11478;51.094;7.030;2023-07-20T04:33:55;8.70;;;4.15;;
22622;SDS011;11478;51.094;7.030;2023-07-20T04:36:21;9.00;;;4.78;;
22622;SDS011;11478;51.094;7.030;2023-07-20T04:38:48;13.57;;;4.68;;
22622;SDS011;11478;51.094;7.030;2023-07-20T04:41:14;9.55;;;5.20;;
22622;SDS011;11478;51.094;7.030;2023-07-20T04:46:13;8.75;;;5.13;;
22622;SDS011;11478;51.094;7.030;2023-07-20T04:48:41;10.90;;;5.25;;
22622;SDS011;11478;51.094;7.030;2023-07-20T04:51:07;9.10;;;5.13;;
22622;SDS011;11478;51.094;7.030;2023-07-20T04:53:33;12.60;;;5.05;;
22622;SDS011;11478;51.094;7.030;2023-07-20T04:55:59;9.52;;;4.93;;
22622;SDS011;11478;51.094;7.030;2023-07-20T04:58:25;9.38;;;5.13;;
22622;SDS011;11478;51.094;7.030;2023-07-20T05:00:51;10.23;;;5.30;;
22622;SDS011;11478;51.094;7.030;2023-07-20T05:03:25;10.38;;;6.15;;
22622;SDS011;11478;51.094;7.030;2023-07-20T05:05:53;7.82;;;4.60;;
22622;SDS011;11478;51.094;7.030;2023-07-20T05:08:19;7.85;;;5.47;;
22622;SDS011;11478;51.094;7.030;2023-07-20T05:10:47;11.02;;;5.63;;
22622;SDS011;11478;51.094;7.030;2023-07-20T05:13:13;11.90;;;5.80;;
22622;SDS011;11478;51.094;7.030;2023-07-20T05:15:41;10.60;;;5.40;;
22622;SDS011;11478;51.094;7.030;2023-07-20T05:18:08;11.25;;;5.20;;
22622;SDS011;11478;51.094;7.030;2023-07-20T05:20:34;8.50;;;5.38;;
22622;SDS011;11478;51.094;7.030;2023-07-20T05:23:00;9.45;;;4.85;;
22622;SDS011;11478;51.094;7.030;2023-07-20T05:25:28;11.18;;;5.07;;
22622;SDS011;11478;51.094;7.030;2023-07-20T05:27:54;10.63;;;6.07;;
22622;SDS011;11478;51.094;7.030;2023-07-20T05:30:21;12.63;;;6.10;;
22622;SDS011;11478;51.094;7.030;2023-07-20T05:32:54;11.55;;;6.10;;
22622;SDS011;11478;51.094;7.030;2023-07-20T05:35:20;11.85;;;7.60;;
22622;SDS011;11478;51.094;7.030;2023-07-20T05:37:48;11.82;;;7.47;;
22622;SDS011;11478;51.094;7.030;2023-07-20T05:40:14;14.30;;;8.48;;
22622;SDS011;11478;51.094;7.030;2023-07-20T05:42:47;12.90;;;8.30;;
22622;SDS011;11478;51.094;7.030;2023-07-20T05:45:14;12.85;;;8.23;;
22622;SDS011;11478;51.094;7.030;2023-07-20T05:47:41;11.55;;;7.22;;
22622;SDS011;11478;51.094;7.030;2023-07-20T05:50:08;11.95;;;8.05;;
22622;SDS011;11478;51.094;7.030;2023-07-20T05:52:34;15.25;;;8.85;;
22622;SDS011;11478;51.094;7.030;2023-07-20T05:55:00;15.95;;;9.32;;
22622;SDS011;11478;51.094;7.030;2023-07-20T05:57:31;11.85;;;8.82;;
22622;SDS011;11478;51.094;7.030;2023-07-20T05:59:56;12.13;;;8.25;;
22622;SDS011;11478;51.094;7.030;2023-07-20T06:08:06;17.38;;;8.82;;
22622;SDS011;11478;51.094;7.030;2023-07-20T06:10:32;18.88;;;8.27;;
22622;SDS011;11478;51.094;7.030;2023-07-20T06:13:10;17.30;;;8.57;;
22622;SDS011;11478;51.094;7.030;2023-07-20T06:15:36;13.27;;;8.27;;
22622;SDS011;11478;51.094;7.030;2023-07-20T06:18:04;13.80;;;9.18;;
22622;SDS011;11478;51.094;7.030;2023-07-20T06:20:29;13.18;;;8.35;;
22622;SDS011;11478;51.094;7.030;2023-07-20T06:22:56;15.00;;;8.52;;
22622;SDS011;11478;51.094;7.030;2023-07-20T06:25:21;10.63;;;7.53;;
22622;SDS011;11478;51.094;7.030;2023-07-20T06:27:49;12.13;;;7.90;;
22622;SDS011;11478;51.094;7.030;2023-07-20T06:30:18;16.58;;;8.52;;
22622;SDS011;11478;51.094;7.030;2023-07-20T06:35:14;12.88;;;9.45;;
22622;SDS011;11478;51.094;7.030;2023-07-20T06:37:41;16.33;;;9.70;;
22622;SDS011;11478;51.094;7.030;2023-07-20T06:40:12;12.57;;;8.10;;
22622;SDS011;11478;51.094;7.030;2023-07-20T06:46:29;13.73;;;9.93;;
22622;SDS011;11478;51.094;7.030;2023-07-20T06:48:56;11.35;;;9.13;;
22622;SDS011;11478;51.094;7.030;2023-07-20T06:51:30;15.30;;;10.73;;
22622;SDS011;11478;51.094;7.030;2023-07-20T06:56:26;12.35;;;10.55;;
22622;SDS011;11478;51.094;7.030;2023-07-20T06:58:58;18.20;;;11.98;;
22622;SDS011;11478;51.094;7.030;2023-07-20T07:01:24;16.25;;;10.63;;
22622;SDS011;11478;51.094;7.030;2023-07-20T07:03:51;16.00;;;10.52;;
22622;SDS011;11478;51.094;7.030;2023-07-20T07:06:17;13.40;;;10.40;;
22622;SDS011;11478;51.094;7.030;2023-07-20T07:11:12;11.90;;;9.25;;
22622;SDS011;11478;51.094;7.030;2023-07-20T07:13:44;13.68;;;9.43;;
22622;SDS011;11478;51.094;7.030;2023-07-20T07:16:12;16.10;;;11.63;;
22622;SDS011;11478;51.094;7.030;2023-07-20T07:18:40;12.35;;;10.70;;
22622;SDS011;11478;51.094;7.030;2023-07-20T07:21:06;15.10;;;10.55;;
22622;SDS011;11478;51.094;7.030;2023-07-20T07:23:33;13.45;;;9.68;;
22622;SDS011;11478;51.094;7.030;2023-07-20T07:25:58;11.60;;;9.55;;
22622;SDS011;11478;51.094;7.030;2023-07-20T07:28:28;13.60;;;10.07;;
22622;SDS011;11478;51.094;7.030;2023-07-20T07:30:54;13.68;;;9.32;;
22622;SDS011;11478;51.094;7.030;2023-07-20T07:33:27;10.68;;;8.40;;
22622;SDS011;11478;51.094;7.030;2023-07-20T07:35:53;13.35;;;9.50;;
22622;SDS011;11478;51.094;7.030;2023-07-20T07:38:19;13.45;;;8.32;;
22622;SDS011;11478;51.094;7.030;2023-07-20T07:40:45;10.95;;;7.93;;
22622;SDS011;11478;51.094;7.030;2023-07-20T07:43:22;11.35;;;8.35;;
22622;SDS011;11478;51.094;7.030;2023-07-20T07:45:47;10.60;;;8.05;;
22622;SDS011;11478;51.094;7.030;2023-07-20T07:48:14;12.48;;;9.00;;
22622;SDS011;11478;51.094;7.030;2023-07-20T07:50:40;14.48;;;8.43;;
22622;SDS011;11478;51.094;7.030;2023-07-20T07:53:07;10.77;;;7.82;;
22622;SDS011;11478;51.094;7.030;2023-07-20T07:55:34;12.38;;;8.52;;
22622;SDS011;11478;51.094;7.030;2023-07-20T07:58:12;10.38;;;7.57;;
22622;SDS011;11478;51.094;7.030;2023-07-20T08:00:38;11.15;;;6.85;;
22622;SDS011;11478;51.094;7.030;2023-07-20T08:03:07;9.52;;;6.65;;
22622;SDS011;11478;51.094;7.030;2023-07-20T08:05:33;8.88;;;6.00;;
22622;SDS011;11478;51.094;7.030;2023-07-20T08:08:10;9.95;;;5.90;;
22622;SDS011;11478;51.094;7.030;2023-07-20T08:10:35;8.23;;;4.75;;
22622;SDS011;11478;51.094;7.030;2023-07-20T08:13:03;6.18;;;3.65;;
22622;SDS011;11478;51.094;7.030;2023-07-20T08:15:28;6.13;;;3.08;;
22622;SDS011;11478;51.094;7.030;2023-07-20T08:17:54;3.58;;;2.22;;
22622;SDS011;11478;51.094;7.030;2023-07-20T08:20:20;2.75;;;1.83;;
22622;SDS011;11478;51.094;7.030;2023-07-20T08:22:52;6.45;;;2.47;;
22622;SDS011;11478;51.094;7.030;2023-07-20T08:25:19;4.22;;;2.25;;
22622;SDS011;11478;51.094;7.030;2023-07-20T08:27:45;4.35;;;2.17;;
22622;SDS011;11478;51.094;7.030;2023-07-20T08:30:12;5.50;;;2.33;;
22622;SDS011;11478;51.094;7.030;2023-07-20T08:32:40;4.20;;;2.58;;
22622;SDS011;11478;51.094;7.030;2023-07-20T08:35:06;3.53;;;2.42;;
22622;SDS011;11478;51.094;7.030;2023-07-20T08:37:32;3.72;;;2.05;;
22622;SDS011;11478;51.094;7.030;2023-07-20T08:39:58;4.43;;;2.08;;
22622;SDS011;11478;51.094;7.030;2023-07-20T08:42:24;3.63;;;1.90;;
22622;SDS011;11478;51.094;7.030;2023-07-20T08:44:52;2.88;;;1.80;;
22622;SDS011;11478;51.094;7.030;2023-07-20T08:47:19;2.83;;;1.83;;
22622;SDS011;11478;51.094;7.030;2023-07-20T08:49:48;5.53;;;1.90;;
22622;SDS011;11478;51.094;7.030;2023-07-20T08:52:14;2.20;;;1.75;;
22622;SDS011;11478;51.094;7.030;2023-07-20T08:54:48;2.03;;;1.67;;
22622;SDS011;11478;51.094;7.030;2023-07-20T08:57:15;5.95;;;2.17;;
22622;SDS011;11478;51.094;7.030;2023-07-20T08:59:46;3.33;;;1.95;;
22622;SDS011;11478;51.094;7.030;2023-07-20T09:02:14;3.80;;;1.80;;
22622;SDS011;11478;51.094;7.030;2023-07-20T09:04:44;3.55;;;1.60;;
22622;SDS011;11478;51.094;7.030;2023-07-20T09:07:10;2.85;;;1.58;;
22622;SDS011;11478;51.094;7.030;2023-07-20T09:09:42;4.82;;;1.73;;
22622;SDS011;11478;51.094;7.030;2023-07-20T09:12:17;4.13;;;1.50;;
22622;SDS011;11478;51.094;7.030;2023-07-20T09:14:43;2.97;;;1.33;;
22622;SDS011;11478;51.094;7.030;2023-07-20T09:17:16;2.35;;;1.40;;
22622;SDS011;11478;51.094;7.030;2023-07-20T09:19:49;2.83;;;1.30;;
22622;SDS011;11478;51.094;7.030;2023-07-20T09:22:15;1.48;;;1.20;;
22622;SDS011;11478;51.094;7.030;2023-07-20T09:24:54;2.85;;;1.30;;
22622;SDS011;11478;51.094;7.030;2023-07-20T09:27:21;2.03;;;1.30;;
22622;SDS011;11478;51.094;7.030;2023-07-20T09:29:54;3.53;;;1.50;;
22622;SDS011;11478;51.094;7.030;2023-07-20T09:32:25;2.58;;;1.42;;
22622;SDS011;11478;51.094;7.030;2023-07-20T09:34:53;1.80;;;1.42;;
22622;SDS011;11478;51.094;7.030;2023-07-20T09:37:20;2.05;;;1.30;;
22622;SDS011;11478;51.094;7.030;2023-07-20T09:39:52;4.82;;;1.55;;
22622;SDS011;11478;51.094;7.030;2023-07-20T09:42:18;3.42;;;1.30;;
22622;SDS011;11478;51.094;7.030;2023-07-20T09:44:47;1.70;;;1.30;;
22622;SDS011;11478;51.094;7.030;2023-07-20T09:47:25;1.92;;;0.95;;
22622;SDS011;11478;51.094;7.030;2023-07-20T09:50:00;1.30;;;1.20;;
22622;SDS011;11478;51.094;7.030;2023-07-20T09:52:26;5.25;;;1.67;;
22622;SDS011;11478;51.094;7.030;2023-07-20T10:08:24;3.63;;;1.80;;
22622;SDS011;11478;51.094;7.030;2023-07-20T10:11:22;3.70;;;1.60;;
22622;SDS011;11478;51.094;7.030;2023-07-20T10:13:59;4.20;;;1.50;;
22622;SDS011;11478;51.094;7.030;2023-07-20T10:16:29;1.75;;;1.27;;
22622;SDS011;11478;51.094;7.030;2023-07-20T10:22:31;2.70;;;1.73;;
22622;SDS011;11478;51.094;7.030;2023-07-20T10:33:06;3.78;;;2.10;;
22622;SDS011;11478;51.094;7.030;2023-07-20T10:38:52;1.92;;;1.48;;
22622;SDS011;11478;51.094;7.030;2023-07-20T10:41:29;1.50;;;1.23;;
22622;SDS011;11478;51.094;7.030;2023-07-20T10:44:14;2.55;;;1.30;;
22622;SDS011;11478;51.094;7.030;2023-07-20T10:46:46;1.70;;;1.00;;
22622;SDS011;11478;51.094;7.030;2023-07-20T10:49:13;2.75;;;1.27;;
22622;SDS011;11478;51.094;7.030;2023-07-20T10:51:57;2.50;;;1.20;;
22622;SDS011;11478;51.094;7.030;2023-07-20T10:56:51;1.58;;;0.95;;
22622;SDS011;11478;51.094;7.030;2023-07-20T10:59:45;1.55;;;1.10;;
22622;SDS011;11478;51.094;7.030;2023-07-20T11:02:17;3.22;;;1.20;;
22622;SDS011;11478;51.094;7.030;2023-07-20T11:04:58;2.25;;;1.20;;
22622;SDS011;11478;51.094;7.030;2023-07-20T11:07:37;2.40;;;1.05;;
22622;SDS011;11478;51.094;7.030;2023-07-20T11:10:27;1.85;;;0.70;;
22622;SDS011;11478;51.094;7.030;2023-07-20T11:18:28;2.40;;;1.02;;
22622;SDS011;11478;51.094;7.030;2023-07-20T11:20:57;2.85;;;1.65;;
22622;SDS011;11478;51.094;7.030;2023-07-20T11:23:25;1.73;;;1.50;;
22622;SDS011;11478;51.094;7.030;2023-07-20T11:26:00;2.13;;;1.42;;
22622;SDS011;11478;51.094;7.030;2023-07-20T11:28:30;1.80;;;1.40;;
22622;SDS011;11478;51.094;7.030;2023-07-20T11:30:56;1.48;;;1.30;;
22622;SDS011;11478;51.094;7.030;2023-07-20T11:33:26;1.85;;;1.30;;
22622;SDS011;11478;51.094;7.030;2023-07-20T11:36:01;2.13;;;1.42;;
22622;SDS011;11478;51.094;7.030;2023-07-20T11:40:57;1.65;;;1.27;;
22622;SDS011;11478;51.094;7.030;2023-07-20T11:43:24;4.38;;;1.65;;
22622;SDS011;11478;51.094;7.030;2023-07-20T11:45:51;2.63;;;1.50;;
22622;SDS011;11478;51.094;7.030;2023-07-20T11:48:17;5.45;;;1.52;;
22622;SDS011;11478;51.094;7.030;2023-07-20T11:50:46;2.45;;;1.08;;
22622;SDS011;11478;51.094;7.030;2023-07-20T11:53:14;1.23;;;1.00;;
22622;SDS011;11478;51.094;7.030;2023-07-20T11:55:41;1.20;;;1.00;;
22622;SDS011;11478;51.094;7.030;2023-07-20T11:58:14;1.35;;;1.00;;
22622;SDS011;11478;51.094;7.030;2023-07-20T12:00:41;1.10;;;0.98;;
22622;SDS011;11478;51.094;7.030;2023-07-20T12:03:10;4.40;;;1.02;;
22622;SDS011;11478;51.094;7.030;2023-07-20T12:05:38;1.52;;;1.00;;
22622;SDS011;11478;51.094;7.030;2023-07-20T12:08:09;0.98;;;0.70;;
22622;SDS011;11478;51.094;7.030;2023-07-20T12:10:38;1.48;;;0.80;;
22622;SDS011;11478;51.094;7.030;2023-07-20T12:13:09;2.47;;;0.90;;
22622;SDS011;11478;51.094;7.030;2023-07-20T12:15:43;1.38;;;0.90;;
22622;SDS011;11478;51.094;7.030;2023-07-20T12:18:09;1.98;;;0.90;;
22622;SDS011;11478;51.094;7.030;2023-07-20T12:20:35;1.08;;;0.80;;
22622;SDS011;11478;51.094;7.030;2023-07-20T12:23:02;0.80;;;0.80;;
22622;SDS011;11478;51.094;7.030;2023-07-20T12:25:37;2.78;;;0.85;;
22622;SDS011;11478;51.094;7.030;2023-07-20T12:28:21;1.92;;;0.85;;
22622;SDS011;11478;51.094;7.030;2023-07-20T12:30:50;1.05;;;0.70;;
22622;SDS011;11478;51.094;7.030;2023-07-20T12:33:21;2.13;;;0.73;;
22622;SDS011;11478;51.094;7.030;2023-07-20T12:35:49;0.77;;;0.77;;
22622;SDS011;11478;51.094;7.030;2023-07-20T12:38:17;1.90;;;0.70;;
22622;SDS011;11478;51.094;7.030;2023-07-20T12:40:43;1.00;;;0.80;;
22622;SDS011;11478;51.094;7.030;2023-07-20T12:43:09;0.82;;;0.63;;
22622;SDS011;11478;51.094;7.030;2023-07-20T12:45:35;2.55;;;0.80;;
22622;SDS011;11478;51.094;7.030;2023-07-20T12:48:02;0.80;;;0.70;;
22622;SDS011;11478;51.094;7.030;2023-07-20T12:50:28;1.55;;;0.80;;
22622;SDS011;11478;51.094;7.030;2023-07-20T12:52:58;0.82;;;0.65;;
22622;SDS011;11478;51.094;7.030;2023-07-20T12:55:28;1.42;;;0.60;;
22622;SDS011;11478;51.094;7.030;2023-07-20T12:57:55;7.72;;;0.90;;
22622;SDS011;11478;51.094;7.030;2023-07-20T13:00:21;2.45;;;0.90;;
22622;SDS011;11478;51.094;7.030;2023-07-20T13:02:48;1.33;;;0.80;;
22622;SDS011;11478;51.094;7.030;2023-07-20T13:05:20;1.40;;;0.73;;
22622;SDS011;11478;51.094;7.030;2023-07-20T13:18:40;2.25;;;0.80;;
22622;SDS011;11478;51.094;7.030;2023-07-20T13:28:17;2.60;;;0.90;;
22622;SDS011;11478;51.094;7.030;2023-07-20T13:31:54;1.23;;;0.80;;
22622;SDS011;11478;51.094;7.030;2023-07-20T13:44:23;1.17;;;0.65;;
22622;SDS011;11478;51.094;7.030;2023-07-20T13:54:38;1.35;;;0.95;;
22622;SDS011;11478;51.094;7.030;2023-07-20T14:07:33;1.10;;;0.80;;
22622;SDS011;11478;51.094;7.030;2023-07-20T14:23:52;1.20;;;0.80;;
22622;SDS011;11478;51.094;7.030;2023-07-20T14:26:51;1.80;;;1.10;;
22622;SDS011;11478;51.094;7.030;2023-07-20T14:29:37;2.40;;;0.98;;
22622;SDS011;11478;51.094;7.030;2023-07-20T14:32:09;7.18;;;1.20;;
22622;SDS011;11478;51.094;7.030;2023-07-20T14:34:35;3.55;;;0.80;;
22622;SDS011;11478;51.094;7.030;2023-07-20T14:37:02;3.85;;;1.10;;
22622;SDS011;11478;51.094;7.030;2023-07-20T14:39:31;1.27;;;0.80;;
22622;SDS011;11478;51.094;7.030;2023-07-20T14:44:51;2.30;;;0.85;;
22622;SDS011;11478;51.094;7.030;2023-07-20T14:58:05;2.00;;;0.90;;
22622;SDS011;11478;51.094;7.030;2023-07-20T15:11:35;1.67;;;1.00;;
22622;SDS011;11478;51.094;7.030;2023-07-20T15:42:35;2.15;;;1.00;;
22622;SDS011;11478;51.094;7.030;2023-07-20T15:45:01;2.25;;;1.08;;
22622;SDS011;11478;51.094;7.030;2023-07-20T15:47:27;1.85;;;0.95;;
22622;SDS011;11478;51.094;7.030;2023-07-20T15:50:00;0.85;;;0.80;;
22622;SDS011;11478;51.094;7.030;2023-07-20T15:59:26;1.33;;;0.82;;
22622;SDS011;11478;51.094;7.030;2023-07-20T16:13:03;2.05;;;0.80;;
22622;SDS011;11478;51.094;7.030;2023-07-20T16:27:05;1.52;;;1.10;;
22622;SDS011;11478;51.094;7.030;2023-07-20T16:36:40;3.22;;;1.20;;
22622;SDS011;11478;51.094;7.030;2023-07-20T17:09:55;1.10;;;0.85;;
22622;SDS011;11478;51.094;7.030;2023-07-20T17:12:24;2.63;;;0.90;;
22622;SDS011;11478;51.094;7.030;2023-07-20T17:15:10;3.17;;;0.90;;
22622;SDS011;11478;51.094;7.030;2023-07-20T17:17:41;1.10;;;0.85;;
22622;SDS011;11478;51.094;7.030;2023-07-20T17:20:13;2.25;;;0.80;;
22622;SDS011;11478;51.094;7.030;2023-07-20T17:22:53;2.28;;;0.82;;
22622;SDS011;11478;51.094;7.030;2023-07-20T17:25:27;1.20;;;0.80;;
22622;SDS011;11478;51.094;7.030;2023-07-20T17:27:58;2.40;;;0.93;;
22622;SDS011;11478;51.094;7.030;2023-07-20T17:30:36;3.40;;;1.00;;
22622;SDS011;11478;51.094;7.030;2023-07-20T17:33:02;3.42;;;1.00;;
22622;SDS011;11478;51.094;7.030;2023-07-20T17:35:32;2.83;;;0.90;;
22622;SDS011;11478;51.094;7.030;2023-07-20T17:38:28;4.97;;;1.08;;
22622;SDS011;11478;51.094;7.030;2023-07-20T17:41:04;1.05;;;0.73;;
22622;SDS011;11478;51.094;7.030;2023-07-20T17:44:19;1.08;;;0.93;;
22622;SDS011;11478;51.094;7.030;2023-07-20T17:58:48;1.67;;;0.80;;
22622;SDS011;11478;51.094;7.030;2023-07-20T18:02:08;1.70;;;0.88;;
22622;SDS011;11478;51.094;7.030;2023-07-20T18:26:15;1.67;;;1.17;;
22622;SDS011;11478;51.094;7.030;2023-07-20T18:29:18;1.42;;;0.80;;
22622;SDS011;11478;51.094;7.030;2023-07-20T18:32:51;1.90;;;1.10;;
22622;SDS011;11478;51.094;7.030;2023-07-20T18:35:46;2.05;;;1.10;;
22622;SDS011;11478;51.094;7.030;2023-07-20T18:38:24;2.17;;;1.20;;
22622;SDS011;11478;51.094;7.030;2023-07-20T18:51:45;2.58;;;1.10;;
22622;SDS011;11478;51.094;7.030;2023-07-20T19:16:28;1.40;;;1.10;;
22622;SDS011;11478;51.094;7.030;2023-07-20T19:18:55;2.65;;;1.13;;
22622;SDS011;11478;51.094;7.030;2023-07-20T19:21:25;3.90;;;1.20;;
22622;SDS011;11478;51.094;7.030;2023-07-20T19:23:52;1.25;;;1.10;;
22622;SDS011;11478;51.094;7.030;2023-07-20T19:26:18;2.05;;;1.00;;
22622;SDS011;11478;51.094;7.030;2023-07-20T19:28:44;1.80;;;1.20;;
22622;SDS011;11478;51.094;7.030;2023-07-20T19:31:18;1.23;;;1.02;;
22622;SDS011;11478;51.094;7.030;2023-07-20T19:36:18;3.13;;;1.20;;
22622;SDS011;11478;51.094;7.030;2023-07-20T19:38:45;2.30;;;1.20;;
22622;SDS011;11478;51.094;7.030;2023-07-20T19:41:17;6.57;;;1.38;;
22622;SDS011;11478;51.094;7.030;2023-07-20T19:43:43;1.67;;;1.20;;
22622;SDS011;11478;51.094;7.030;2023-07-20T19:48:40;1.55;;;1.27;;
22622;SDS011;11478;51.094;7.030;2023-07-20T19:51:16;2.50;;;1.23;;
22622;SDS011;11478;51.094;7.030;2023-07-20T19:53:41;2.53;;;1.10;;
22622;SDS011;11478;51.094;7.030;2023-07-20T19:56:08;1.80;;;1.30;;
22622;SDS011;11478;51.094;7.030;2023-07-20T19:58:34;2.83;;;1.20;;
22622;SDS011;11478;51.094;7.030;2023-07-20T20:01:05;3.95;;;1.30;;
22622;SDS011;11478;51.094;7.030;2023-07-20T20:03:31;2.80;;;1.20;;
22622;SDS011;11478;51.094;7.030;2023-07-20T20:06:12;4.15;;;1.05;;
22622;SDS011;11478;51.094;7.030;2023-07-20T20:08:38;3.30;;;1.35;;
22622;SDS011;11478;51.094;7.030;2023-07-20T20:11:05;3.67;;;1.50;;
22622;SDS011;11478;51.094;7.030;2023-07-20T20:13:31;3.95;;;1.10;;
22622;SDS011;11478;51.094;7.030;2023-07-20T20:18:28;2.47;;;1.30;;
22622;SDS011;11478;51.094;7.030;2023-07-20T20:21:04;1.15;;;1.05;;
22622;SDS011;11478;51.094;7.030;2023-07-20T20:23:32;7.32;;;1.20;;
22622;SDS011;11478;51.094;7.030;2023-07-20T20:25:59;2.90;;;1.42;;